Time;durP1;ratioP1;P1;durP2;ratioP2;P2;SDS_P1;SDS_P2;PMS_P1;PMS_P2;Temp;Humidity;BMP_temperature;BMP_pressure;BME280_temperature;BME280_humidity;BME280_pressure;Samples;Min_cycle;Max_cycle;Signal;HPM_P1;HPM_P2
2022/04/09 00:02:19;;;;;;;3.50;1.10;;;17.80;55.00;;;;;;4892818;28;92661;-70
2022/04/09 00:04:44;;;;;;;3.20;1.20;;;17.70;55.00;;;;;;4892092;28;91775;-70
2022/04/09 00:07:10;;;;;;;4.63;1.38;;;17.70;55.00;;;;;;4892399;28;93942;-70
2022/04/09 00:09:36;;;;;;;2.67;1.10;;;17.70;55.00;;;;;;4892326;28;93419;-70
2022/04/09 00:12:03;;;;;;;3.25;1.23;;;17.70;55.00;;;;;;4894358;28;94916;-70
2022/04/09 00:14:28;;;;;;;3.10;1.30;;;17.70;55.00;;;;;;4895629;28;92531;-71
2022/04/09 00:16:54;;;;;;;3.83;1.30;;;17.70;55.00;;;;;;4895507;28;93477;-70
2022/04/09 00:19:19;;;;;;;3.20;1.10;;;17.60;54.90;;;;;;4893985;28;92819;-70
2022/04/09 00:21:46;;;;;;;4.63;1.33;;;17.70;55.00;;;;;;4894434;28;92543;-70
2022/04/09 00:24:12;;;;;;;3.08;1.13;;;17.70;55.00;;;;;;4895509;28;92957;-70
2022/04/09 00:26:38;;;;;;;3.75;1.20;;;17.60;54.90;;;;;;4886888;28;94798;-71
2022/04/09 00:29:04;;;;;;;4.38;1.33;;;17.60;54.90;;;;;;4895660;28;92812;-71
2022/04/09 00:31:29;;;;;;;3.30;1.00;;;17.60;54.90;;;;;;4894459;28;93056;-70
2022/04/09 00:33:56;;;;;;;3.67;1.10;;;17.60;54.90;;;;;;4894852;28;93160;-70
2022/04/09 00:36:21;;;;;;;2.90;1.08;;;17.60;54.90;;;;;;4892094;28;96722;-70
2022/04/09 00:38:47;;;;;;;3.35;1.30;;;17.60;55.00;;;;;;4893884;28;100662;-70
2022/04/09 00:41:13;;;;;;;2.67;0.95;;;17.60;54.90;;;;;;4895123;28;92641;-70
2022/04/09 00:43:40;;;;;;;3.10;1.10;;;17.60;55.00;;;;;;4893247;28;93078;-70
2022/04/09 00:46:06;;;;;;;3.70;1.20;;;17.60;54.90;;;;;;4892732;28;93785;-70
2022/04/09 00:48:32;;;;;;;2.63;1.08;;;17.50;55.00;;;;;;4894864;28;92930;-70
2022/04/09 00:50:58;;;;;;;3.30;1.20;;;17.50;54.90;;;;;;4894495;28;92495;-70
2022/04/09 00:53:25;;;;;;;3.35;1.20;;;17.50;55.00;;;;;;4893724;28;92385;-70
2022/04/09 00:58:55;;;;;;;3.53;1.00;;;17.50;55.00;;;;;;4894603;28;92989;-70
2022/04/09 01:01:26;;;;;;;3.45;1.48;;;17.50;55.00;;;;;;4892730;28;96663;-70
2022/04/09 01:03:52;;;;;;;2.35;0.88;;;17.50;55.00;;;;;;4895131;28;93040;-70
2022/04/09 01:06:18;;;;;;;2.63;1.00;;;17.50;55.00;;;;;;4893695;28;94234;-70
2022/04/09 01:08:44;;;;;;;2.50;0.90;;;17.50;55.00;;;;;;4892514;28;94082;-70
2022/04/09 01:11:12;;;;;;;3.13;0.90;;;17.50;55.00;;;;;;4895379;28;92552;-70
2022/04/09 01:13:37;;;;;;;4.20;1.30;;;17.50;55.00;;;;;;4893584;28;92686;-70
2022/04/09 01:16:04;;;;;;;3.42;1.00;;;17.50;55.00;;;;;;4894172;28;93137;-70
2022/04/09 01:18:31;;;;;;;2.72;1.02;;;17.50;55.00;;;;;;4894958;28;92818;-70
2022/04/09 01:21:00;;;;;;;2.80;1.10;;;17.50;54.90;;;;;;4893466;28;93046;-70
2022/04/09 01:23:27;;;;;;;3.00;1.00;;;17.50;54.90;;;;;;4893383;28;92619;-71
2022/04/09 01:25:56;;;;;;;2.83;1.08;;;17.50;55.00;;;;;;4893279;28;95693;-70
2022/04/09 01:28:21;;;;;;;2.28;1.00;;;17.40;54.80;;;;;;4894024;28;95171;-70
2022/04/09 01:30:47;;;;;;;2.97;1.02;;;17.40;54.80;;;;;;4894333;28;92479;-70
2022/04/09 01:33:17;;;;;;;2.17;0.93;;;17.50;54.80;;;;;;4894585;28;92589;-70
2022/04/09 01:35:43;;;;;;;3.63;1.10;;;17.40;54.70;;;;;;4893471;28;93179;-70
2022/04/09 01:38:09;;;;;;;3.63;1.00;;;17.40;54.80;;;;;;4893494;28;94846;-70
2022/04/09 01:40:35;;;;;;;2.60;1.15;;;17.40;54.70;;;;;;4894487;28;92918;-71
2022/04/09 01:43:00;;;;;;;3.08;1.10;;;17.40;54.70;;;;;;4894970;28;92347;-70
2022/04/09 01:45:27;;;;;;;3.88;1.20;;;17.40;54.80;;;;;;4894424;28;93643;-70
2022/04/09 01:47:54;;;;;;;3.03;1.17;;;17.40;54.80;;;;;;4894521;28;93241;-70
2022/04/09 01:50:21;;;;;;;2.83;1.10;;;17.40;54.70;;;;;;4893722;28;95241;-70
2022/04/09 01:52:47;;;;;;;2.65;1.20;;;17.40;54.70;;;;;;4894945;28;92465;-70
2022/04/09 01:55:13;;;;;;;2.75;1.17;;;17.40;54.80;;;;;;4894401;28;93098;-70
2022/04/09 01:57:38;;;;;;;2.50;0.93;;;17.40;54.80;;;;;;4894120;28;96808;-70
2022/04/09 02:00:08;;;;;;;4.28;1.20;;;17.40;54.70;;;;;;4893989;28;92610;-70
2022/04/09 02:02:34;;;;;;;2.92;1.00;;;17.40;54.70;;;;;;4894108;28;93161;-70
2022/04/09 02:04:59;;;;;;;4.40;1.20;;;17.40;54.70;;;;;;4894780;28;93271;-70
2022/04/09 02:07:27;;;;;;;2.47;1.10;;;17.30;54.70;;;;;;4894877;28;91901;-70
2022/04/09 02:09:53;;;;;;;3.53;1.25;;;17.30;54.70;;;;;;4894640;28;92621;-70
2022/04/09 02:12:19;;;;;;;2.88;1.00;;;17.30;54.60;;;;;;4894107;28;92795;-70
2022/04/09 02:14:45;;;;;;;3.67;1.15;;;17.30;54.60;;;;;;4892900;28;96626;-70
2022/04/09 02:17:11;;;;;;;2.63;0.90;;;17.30;54.60;;;;;;4894280;28;95057;-70
2022/04/09 02:19:38;;;;;;;2.13;0.93;;;17.30;54.60;;;;;;4893280;28;92771;-70
2022/04/09 02:22:04;;;;;;;2.80;1.00;;;17.30;54.60;;;;;;4876355;28;92973;-70
2022/04/09 02:24:30;;;;;;;2.20;0.95;;;17.30;55.70;;;;;;4894285;28;93086;-70
2022/04/09 02:26:55;;;;;;;2.63;0.85;;;17.30;54.60;;;;;;4894471;28;92808;-70
2022/04/09 02:29:21;;;;;;;2.53;1.00;;;17.30;54.70;;;;;;4893967;28;96738;-70
2022/04/09 02:31:46;;;;;;;2.83;1.13;;;17.30;54.70;;;;;;4894050;28;91857;-70
2022/04/09 02:34:12;;;;;;;3.65;1.00;;;17.30;54.60;;;;;;4892807;28;100227;-70
2022/04/09 02:36:38;;;;;;;2.72;1.00;;;17.30;54.60;;;;;;4893220;28;92670;-70
2022/04/09 02:39:04;;;;;;;1.67;0.75;;;17.30;54.60;;;;;;4892956;28;94981;-70
2022/04/09 02:41:30;;;;;;;3.75;1.10;;;17.20;54.50;;;;;;4895159;28;93355;-70
2022/04/09 02:43:56;;;;;;;2.90;1.00;;;17.20;54.40;;;;;;4893687;28;94377;-70
2022/04/09 02:46:21;;;;;;;4.50;1.30;;;17.20;54.50;;;;;;4893590;28;94777;-70
2022/04/09 02:48:47;;;;;;;3.25;0.90;;;17.20;54.40;;;;;;4893811;28;93052;-70
2022/04/09 02:51:13;;;;;;;3.33;1.00;;;17.20;54.40;;;;;;4893095;28;98242;-70
2022/04/09 02:53:39;;;;;;;3.67;0.90;;;17.20;54.40;;;;;;4892721;28;94207;-70
2022/04/09 02:56:05;;;;;;;4.35;1.17;;;17.20;54.50;;;;;;4894187;28;94317;-70
2022/04/09 02:58:31;;;;;;;3.35;1.17;;;17.20;54.40;;;;;;4893529;28;93136;-70
2022/04/09 03:00:56;;;;;;;3.50;1.20;;;17.20;54.40;;;;;;4893833;28;92869;-70
2022/04/09 03:03:22;;;;;;;3.50;1.10;;;17.10;54.40;;;;;;4892022;28;95568;-70
2022/04/09 03:05:48;;;;;;;3.78;1.15;;;17.20;54.40;;;;;;4892983;28;95247;-70
2022/04/09 03:08:14;;;;;;;2.38;1.13;;;17.10;54.40;;;;;;4893341;28;92577;-70
2022/04/09 03:10:40;;;;;;;3.83;1.05;;;17.20;54.40;;;;;;4894646;28;93112;-70
2022/04/09 03:13:05;;;;;;;3.35;0.90;;;17.20;54.40;;;;;;4893406;28;92999;-70
2022/04/09 03:15:31;;;;;;;2.35;0.95;;;17.20;54.50;;;;;;4892984;28;92862;-70
2022/04/09 04:18:58;;;;;;;2.80;1.02;;;17.00;54.20;;;;;;5168630;23;96879;-70
2022/04/09 04:21:23;;;;;;;2.45;1.00;;;17.00;54.30;;;;;;4915346;28;93322;-70
2022/04/09 04:23:49;;;;;;;2.38;1.02;;;17.00;54.30;;;;;;4914880;28;104002;-70
2022/04/09 04:26:14;;;;;;;3.30;1.10;;;17.00;54.30;;;;;;4914200;28;96619;-70
2022/04/09 04:28:40;;;;;;;3.08;1.10;;;16.90;54.20;;;;;;4915424;28;92783;-70
2022/04/09 04:31:07;;;;;;;3.53;0.98;;;17.00;55.30;;;;;;4915290;28;93477;-70
2022/04/09 04:33:32;;;;;;;2.70;1.00;;;17.00;54.20;;;;;;4914251;28;94690;-70
2022/04/09 04:35:58;;;;;;;2.78;1.10;;;17.00;54.20;;;;;;4914919;28;92835;-70
2022/04/09 04:38:24;;;;;;;3.33;0.98;;;16.90;54.10;;;;;;4914958;28;92466;-70
2022/04/09 04:40:51;;;;;;;3.28;1.10;;;16.90;54.10;;;;;;4914561;28;93536;-70
2022/04/09 04:43:16;;;;;;;2.60;0.90;;;17.00;54.20;;;;;;4914415;28;93667;-70
2022/04/09 04:45:42;;;;;;;2.63;1.02;;;17.00;54.20;;;;;;4914482;28;93092;-71
2022/04/09 04:48:08;;;;;;;1.92;0.90;;;16.90;54.10;;;;;;4915632;28;92581;-70
2022/04/09 04:50:36;;;;;;;5.28;1.23;;;17.00;54.20;;;;;;4913176;28;95539;-71
2022/04/09 04:53:02;;;;;;;2.58;1.23;;;16.90;54.50;;;;;;4913342;28;97397;-71
2022/04/09 04:55:28;;;;;;;4.78;1.02;;;16.90;54.40;;;;;;4914921;28;92641;-71
2022/04/09 04:57:55;;;;;;;2.03;1.00;;;16.90;54.40;;;;;;4914281;28;92860;-71
2022/04/09 05:00:22;;;;;;;2.55;1.00;;;16.90;54.40;;;;;;4913609;28;94231;-71
2022/04/09 05:02:49;;;;;;;2.45;1.20;;;16.90;54.30;;;;;;4914538;28;92924;-71
2022/04/09 05:05:15;;;;;;;4.53;1.00;;;16.80;54.30;;;;;;4913172;28;93371;-71
2022/04/09 05:07:41;;;;;;;2.33;0.93;;;16.90;54.40;;;;;;4915697;28;92236;-71
2022/04/09 05:10:08;;;;;;;2.88;1.00;;;16.90;54.40;;;;;;4914592;28;92949;-71
2022/04/09 05:12:35;;;;;;;3.08;1.02;;;16.80;54.40;;;;;;4914081;28;95543;-70
2022/04/09 05:15:02;;;;;;;5.35;1.00;;;16.90;54.60;;;;;;4914659;28;94838;-71
2022/04/09 05:17:28;;;;;;;3.25;1.10;;;16.90;54.70;;;;;;4915391;28;92445;-71
2022/04/09 05:19:53;;;;;;;2.13;1.00;;;16.90;54.90;;;;;;4913959;28;93892;-71
2022/04/09 05:22:19;;;;;;;2.83;0.80;;;16.90;54.90;;;;;;4913891;28;93887;-71
2022/04/09 05:24:44;;;;;;;2.50;1.02;;;16.80;54.70;;;;;;4914162;28;93428;-71
2022/04/09 05:27:10;;;;;;;2.67;0.80;;;16.90;54.70;;;;;;4914550;28;93193;-71
2022/04/09 05:29:35;;;;;;;2.58;0.70;;;16.90;54.70;;;;;;4914069;28;97625;-70
2022/04/09 05:32:01;;;;;;;2.78;1.08;;;16.80;54.50;;;;;;4913837;28;92790;-71
2022/04/09 05:34:26;;;;;;;2.92;0.93;;;16.90;54.70;;;;;;4914540;28;93113;-71
2022/04/09 05:36:52;;;;;;;2.63;0.90;;;16.80;54.60;;;;;;4913668;28;94637;-71
2022/04/09 05:39:18;;;;;;;2.92;1.10;;;16.90;54.80;;;;;;4913769;28;100284;-71
2022/04/09 05:41:44;;;;;;;3.05;0.90;;;16.90;54.80;;;;;;4914540;28;96100;-70
2022/04/09 05:44:10;;;;;;;2.42;0.82;;;16.90;54.60;;;;;;4914314;28;92608;-71
2022/04/09 05:46:36;;;;;;;1.75;0.80;;;17.00;54.70;;;;;;4913670;28;92527;-71
2022/04/09 05:49:02;;;;;;;4.18;1.10;;;17.00;54.50;;;;;;4914018;28;93130;-70
2022/04/09 05:51:28;;;;;;;4.15;1.10;;;17.00;54.80;;;;;;4914200;28;94883;-72
2022/04/09 05:53:55;;;;;;;3.20;0.95;;;17.00;55.00;;;;;;4915115;28;92756;-72
2022/04/09 05:56:23;;;;;;;3.35;1.23;;;16.90;54.60;;;;;;4914462;28;92451;-72
2022/04/09 05:58:48;;;;;;;2.55;0.90;;;17.00;54.60;;;;;;4913251;28;93020;-72
2022/04/09 06:01:15;;;;;;;3.63;1.10;;;17.00;54.70;;;;;;4913032;28;97049;-71
2022/04/09 06:03:40;;;;;;;2.83;0.88;;;17.00;54.90;;;;;;4913040;28;94872;-71
2022/04/09 06:06:08;;;;;;;2.70;0.85;;;17.00;55.40;;;;;;4913666;28;92897;-71
2022/04/09 06:08:34;;;;;;;3.15;1.10;;;17.10;55.50;;;;;;4911991;28;93307;-71
2022/04/09 06:10:59;;;;;;;2.20;0.70;;;17.30;55.70;;;;;;4913218;28;92779;-72
2022/04/09 06:13:26;;;;;;;1.45;0.70;;;17.40;55.00;;;;;;4913320;28;92903;-70
2022/04/09 06:15:52;;;;;;;1.83;0.80;;;17.60;54.40;;;;;;4914146;28;92953;-71
2022/04/09 06:18:17;;;;;;;2.58;0.88;;;17.70;54.10;;;;;;4912891;28;94672;-71
2022/04/09 06:20:43;;;;;;;3.30;0.90;;;17.80;53.90;;;;;;4912641;28;99727;-70
2022/04/09 06:23:08;;;;;;;2.67;0.90;;;17.80;53.60;;;;;;4913979;28;92981;-70
2022/04/09 06:25:35;;;;;;;7.00;0.80;;;17.90;53.40;;;;;;4912825;28;92646;-70
2022/04/09 06:28:01;;;;;;;1.48;0.70;;;18.00;53.20;;;;;;4911274;28;104824;-70
2022/04/09 06:30:27;;;;;;;2.55;0.73;;;18.10;53.00;;;;;;4912412;28;95038;-71
2022/04/09 06:32:53;;;;;;;6.05;0.85;;;18.20;53.00;;;;;;4913095;28;92429;-70
2022/04/09 06:35:21;;;;;;;2.53;0.70;;;18.20;52.80;;;;;;4912886;28;92916;-70
2022/04/09 06:37:47;;;;;;;2.08;0.80;;;18.30;52.90;;;;;;4912937;28;93531;-67
2022/04/09 06:40:13;;;;;;;3.50;0.93;;;18.30;53.00;;;;;;4913314;28;92732;-67
2022/04/09 06:42:41;;;;;;;16.35;1.15;;;18.30;53.10;;;;;;4912976;28;92541;-67
2022/04/09 06:45:08;;;;;;;10.10;1.23;;;18.40;53.20;;;;;;4912128;28;92661;-66
2022/04/09 06:47:38;;;;;;;5.78;1.10;;;18.40;53.40;;;;;;4913532;28;93190;-68
2022/04/09 06:50:08;;;;;;;6.28;1.30;;;18.40;53.50;;;;;;4912769;28;94007;-68
2022/04/09 06:52:34;;;;;;;3.22;1.15;;;18.40;53.40;;;;;;4911649;28;95356;-68
2022/04/09 06:55:00;;;;;;;7.90;1.30;;;18.40;53.50;;;;;;4912381;28;93056;-68
2022/04/09 06:57:28;;;;;;;6.35;0.95;;;18.40;53.40;;;;;;4911024;28;94502;-68
2022/04/09 06:59:57;;;;;;;7.90;0.98;;;18.40;53.50;;;;;;4912363;28;93957;-67
2022/04/09 07:02:23;;;;;;;4.93;1.35;;;18.40;53.40;;;;;;4912356;28;92770;-68
2022/04/09 07:04:48;;;;;;;6.90;0.88;;;18.40;53.30;;;;;;4912876;28;92961;-68
2022/04/09 07:07:25;;;;;;;5.75;1.15;;;18.50;53.30;;;;;;4912595;28;93098;-67
2022/04/09 07:09:52;;;;;;;10.45;1.15;;;18.50;53.20;;;;;;4912129;28;93922;-68
2022/04/09 07:12:18;;;;;;;3.65;1.10;;;18.50;53.20;;;;;;4913312;28;92542;-68
2022/04/09 07:14:43;;;;;;;7.05;1.10;;;18.60;53.10;;;;;;4895307;28;92819;-70
2022/04/09 07:17:09;;;;;;;3.80;1.02;;;18.60;52.90;;;;;;4910899;28;95528;-69
2022/04/09 07:19:35;;;;;;;6.88;1.30;;;18.60;52.90;;;;;;4910786;28;93922;-69
2022/04/09 07:22:00;;;;;;;7.88;1.35;;;18.60;52.80;;;;;;4915319;28;92800;-69
2022/04/09 07:24:26;;;;;;;10.45;1.30;;;18.70;53.00;;;;;;4914962;28;92631;-68
2022/04/09 07:26:52;;;;;;;4.68;1.00;;;18.70;53.00;;;;;;4914775;28;93107;-67
2022/04/09 07:29:17;;;;;;;7.32;1.27;;;18.70;53.00;;;;;;4915077;28;93289;-67
2022/04/09 07:31:45;;;;;;;5.93;1.15;;;18.70;52.80;;;;;;4914795;28;92473;-67
2022/04/09 07:34:10;;;;;;;6.50;1.17;;;18.70;52.70;;;;;;4914649;28;92203;-67
2022/04/09 07:36:38;;;;;;;7.18;1.20;;;18.80;52.60;;;;;;4915510;28;93725;-67
2022/04/09 07:39:06;;;;;;;9.20;1.10;;;18.80;52.50;;;;;;4915012;28;94490;-67
2022/04/09 07:41:31;;;;;;;5.85;1.00;;;18.90;52.50;;;;;;4914538;28;96343;-67
2022/04/09 07:43:57;;;;;;;7.22;1.27;;;18.90;52.50;;;;;;4915912;28;93057;-68
2022/04/09 07:46:23;;;;;;;4.88;1.40;;;18.90;52.40;;;;;;4915173;28;93128;-67
2022/04/09 07:48:50;;;;;;;3.92;1.20;;;19.00;52.40;;;;;;4914785;28;94479;-67
2022/04/09 07:51:16;;;;;;;8.48;1.25;;;19.00;52.40;;;;;;4915490;28;92509;-67
2022/04/09 07:53:42;;;;;;;5.38;1.40;;;19.00;52.30;;;;;;4915156;28;92572;-67
2022/04/09 07:56:08;;;;;;;7.00;1.58;;;18.90;52.30;;;;;;4914131;28;93671;-68
2022/04/09 07:58:34;;;;;;;7.93;1.40;;;18.90;52.30;;;;;;4915569;28;91817;-68
2022/04/09 08:00:59;;;;;;;5.10;1.40;;;18.90;52.40;;;;;;4915163;28;92707;-67
2022/04/09 08:03:25;;;;;;;3.75;1.10;;;18.90;52.50;;;;;;4914611;28;92565;-67
2022/04/09 08:05:50;;;;;;;3.53;1.23;;;18.90;52.50;;;;;;4913153;28;108709;-67
2022/04/09 08:08:16;;;;;;;5.18;1.00;;;18.90;52.40;;;;;;4913826;28;96577;-67
2022/04/09 08:10:42;;;;;;;4.57;1.15;;;18.90;52.30;;;;;;4914787;28;93038;-69
2022/04/09 08:13:08;;;;;;;4.57;1.23;;;18.90;52.40;;;;;;4914522;28;92945;-68
2022/04/09 08:15:34;;;;;;;41.47;2.47;;;19.00;52.40;;;;;;4914071;28;95175;-68
2022/04/09 08:18:02;;;;;;;13.77;1.70;;;18.90;52.30;;;;;;4914566;28;94188;-68
2022/04/09 08:20:28;;;;;;;17.65;1.70;;;19.00;52.30;;;;;;4914436;28;92639;-68
2022/04/09 08:22:54;;;;;;;12.32;1.73;;;19.00;52.30;;;;;;4914380;28;92214;-67
2022/04/09 08:25:19;;;;;;;12.38;1.67;;;19.00;52.30;;;;;;4914001;28;94082;-68
2022/04/09 08:27:49;;;;;;;9.45;1.73;;;19.10;52.40;;;;;;4914397;28;92935;-67
2022/04/09 08:30:15;;;;;;;7.63;1.40;;;19.10;52.50;;;;;;4913013;28;94819;-68
2022/04/09 08:32:41;;;;;;;7.80;1.50;;;19.20;52.50;;;;;;4914448;28;93017;-68
2022/04/09 08:35:07;;;;;;;9.60;1.70;;;19.20;52.60;;;;;;4913869;28;94195;-67
2022/04/09 08:37:32;;;;;;;11.02;1.80;;;19.20;52.60;;;;;;4913337;28;92893;-68
2022/04/09 08:39:58;;;;;;;10.82;1.50;;;19.20;52.70;;;;;;4914780;28;92476;-67
2022/04/09 08:42:24;;;;;;;7.95;1.45;;;19.20;52.70;;;;;;4914576;28;92526;-67
2022/04/09 08:44:50;;;;;;;11.07;1.73;;;19.20;52.80;;;;;;4912963;28;94637;-67
2022/04/09 08:47:16;;;;;;;10.55;1.55;;;19.10;52.90;;;;;;4913444;28;92601;-67
2022/04/09 08:49:47;;;;;;;9.48;1.35;;;19.20;53.10;;;;;;4914051;28;92948;-70
2022/04/09 08:52:13;;;;;;;10.30;1.80;;;19.20;53.20;;;;;;4913819;28;93267;-71
2022/04/09 08:54:41;;;;;;;7.78;1.52;;;19.20;53.30;;;;;;4913315;28;95404;-70
2022/04/09 08:57:07;;;;;;;8.60;1.95;;;19.20;53.30;;;;;;4913644;28;97112;-69
2022/04/09 08:59:33;;;;;;;5.28;1.52;;;19.30;53.40;;;;;;4913986;28;92775;-70
2022/04/09 09:01:59;;;;;;;12.50;1.90;;;19.30;53.50;;;;;;4914970;28;93022;-70
2022/04/09 09:04:27;;;;;;;12.43;1.50;;;19.30;53.20;;;;;;4913856;28;93136;-71
2022/04/09 09:06:52;;;;;;;11.90;1.85;;;19.40;53.10;;;;;;4895707;28;102883;-70
2022/04/09 09:09:29;;;;;;;7.43;1.48;;;19.40;52.90;;;;;;4914054;28;95281;-70
2022/04/09 09:11:57;;;;;;;7.93;1.80;;;19.40;52.90;;;;;;4913907;28;91852;-70
2022/04/09 09:14:27;;;;;;;6.70;1.40;;;19.40;52.90;;;;;;4913143;28;94749;-71
2022/04/09 09:16:54;;;;;;;4.85;1.50;;;19.40;52.90;;;;;;4914176;28;92929;-70
2022/04/09 09:19:21;;;;;;;9.63;1.58;;;19.30;52.90;;;;;;4912194;28;95158;-70
2022/04/09 09:21:54;;;;;;;6.85;1.70;;;19.30;54.00;;;;;;4914158;28;92786;-70
2022/04/09 09:24:20;;;;;;;8.85;1.92;;;19.30;52.90;;;;;;4914522;28;93217;-70
2022/04/09 09:26:45;;;;;;;7.78;1.80;;;19.30;53.10;;;;;;4913390;28;93119;-70
2022/04/09 09:29:26;;;;;;;5.72;1.63;;;19.20;53.10;;;;;;4914746;28;92744;-69
2022/04/09 09:31:52;;;;;;;7.53;1.80;;;19.20;53.20;;;;;;4914155;28;92578;-69
2022/04/09 09:34:19;;;;;;;8.25;1.95;;;19.20;53.20;;;;;;4913568;28;94011;-69
2022/04/09 09:36:46;;;;;;;6.75;1.88;;;19.20;53.30;;;;;;4914243;28;93061;-70
2022/04/09 09:39:13;;;;;;;9.32;1.77;;;19.30;53.40;;;;;;4914814;28;92566;-71
2022/04/09 09:42:06;;;;;;;10.68;2.15;;;19.30;53.40;;;;;;4913461;28;92787;-70
2022/04/09 09:44:32;;;;;;;8.35;1.80;;;19.30;53.50;;;;;;4907918;28;96510;-71
2022/04/09 09:47:08;;;;;;;4.35;1.77;;;19.20;53.70;;;;;;4913912;28;95549;-72
2022/04/09 09:49:47;;;;;;;8.40;1.70;;;19.20;53.90;;;;;;4913831;28;92734;-71
2022/04/09 09:52:14;;;;;;;7.68;2.00;;;19.20;54.10;;;;;;4914546;28;92996;-70
2022/04/09 09:54:59;;;;;;;8.27;1.63;;;19.10;54.20;;;;;;4912649;28;93266;-70
2022/04/09 09:57:29;;;;;;;10.77;2.00;;;19.10;54.40;;;;;;4913488;28;93947;-70
2022/04/09 10:00:01;;;;;;;9.15;1.77;;;19.10;54.60;;;;;;4913630;28;93003;-70
2022/04/09 10:02:27;;;;;;;11.23;1.43;;;19.20;54.70;;;;;;4914596;28;91775;-72
2022/04/09 10:04:54;;;;;;;4.22;1.48;;;19.30;54.70;;;;;;4913191;28;93065;-71
2022/04/09 10:07:20;;;;;;;7.80;1.88;;;19.30;54.70;;;;;;4912866;28;93102;-70
2022/04/09 10:09:49;;;;;;;14.10;2.10;;;19.40;54.80;;;;;;4912730;28;95546;-70
2022/04/09 10:12:25;;;;;;;15.73;6.15;;;19.50;54.80;;;;;;4913933;28;93079;-71
2022/04/09 10:14:58;;;;;;;56.47;31.73;;;19.60;54.90;;;;;;4913557;28;94414;-71
2022/04/09 10:17:26;;;;;;;61.08;35.67;;;19.60;55.00;;;;;;4913440;28;93868;-70
2022/04/09 10:20:01;;;;;;;66.45;37.17;;;19.60;55.20;;;;;;4913150;28;92661;-72
2022/04/09 10:22:35;;;;;;;69.38;35.95;;;19.70;55.60;;;;;;4912944;28;93379;-74
2022/04/09 10:25:01;;;;;;;62.25;34.30;;;19.70;55.60;;;;;;4913528;28;94155;-70
2022/04/09 10:27:42;;;;;;;56.05;33.58;;;19.70;55.80;;;;;;4912559;28;93145;-70
2022/04/09 10:30:12;;;;;;;63.70;34.58;;;19.70;56.10;;;;;;4912014;28;92622;-69
2022/04/09 10:32:42;;;;;;;61.55;32.85;;;19.60;56.30;;;;;;4913165;28;92539;-71
2022/04/09 10:35:38;;;;;;;55.47;32.20;;;19.60;56.40;;;;;;4911143;28;96506;-72
2022/04/09 10:38:06;;;;;;;54.72;32.13;;;19.60;56.50;;;;;;4912444;28;97258;-70
2022/04/09 10:40:52;;;;;;;50.45;31.10;;;19.50;56.60;;;;;;4912771;28;92595;-70
2022/04/09 10:43:24;;;;;;;52.42;30.45;;;19.50;56.80;;;;;;4912925;28;92749;-70
2022/04/09 10:46:02;;;;;;;54.08;30.90;;;19.40;56.80;;;;;;4912754;28;94579;-72
2022/04/09 10:48:31;;;;;;;53.75;30.92;;;19.40;57.10;;;;;;4912460;28;93085;-71
2022/04/09 10:51:01;;;;;;;51.33;29.02;;;19.30;57.20;;;;;;4911052;28;92878;-72
2022/04/09 10:53:28;;;;;;;49.85;27.98;;;19.30;57.40;;;;;;4912454;28;92148;-69
2022/04/09 10:56:20;;;;;;;55.22;29.30;;;19.30;57.60;;;;;;4910740;28;94551;-69
2022/04/09 10:59:12;;;;;;;72.40;29.33;;;19.30;57.60;;;;;;4912415;28;95133;-70
2022/04/09 11:01:47;;;;;;;62.83;28.85;;;19.30;58.50;;;;;;4911103;28;95001;-72
2022/04/09 11:04:36;;;;;;;58.95;28.02;;;19.30;58.50;;;;;;4913279;28;93069;-69
2022/04/09 11:07:23;;;;;;;49.08;26.95;;;19.30;58.30;;;;;;4911863;28;92814;-69
2022/04/09 11:10:02;;;;;;;55.85;27.63;;;19.30;58.20;;;;;;4912044;28;92918;-69
2022/04/09 11:12:40;;;;;;;48.53;25.50;;;19.20;58.50;;;;;;4912481;28;92533;-71
2022/04/09 11:15:08;;;;;;;42.53;24.38;;;19.20;58.60;;;;;;4912553;28;93210;-72
2022/04/09 11:17:36;;;;;;;43.33;23.38;;;19.10;58.40;;;;;;4912243;28;93187;-70
2022/04/09 11:20:10;;;;;;;42.85;23.67;;;19.10;58.10;;;;;;4911640;28;94360;-73
2022/04/09 11:22:39;;;;;;;40.90;22.83;;;19.00;57.90;;;;;;4911687;28;92733;-71
2022/04/09 11:25:07;;;;;;;44.40;22.15;;;19.00;58.00;;;;;;4912017;28;92840;-71
2022/04/09 11:27:33;;;;;;;38.60;23.08;;;19.00;58.00;;;;;;4910207;28;98113;-71
2022/04/09 11:29:59;;;;;;;40.67;21.85;;;19.00;58.00;;;;;;4912863;28;95115;-71
2022/04/09 11:32:26;;;;;;;34.50;20.52;;;19.00;57.80;;;;;;4912161;28;92812;-71
2022/04/09 11:34:53;;;;;;;34.88;21.15;;;19.10;57.70;;;;;;4911842;28;92566;-70
2022/04/09 11:37:20;;;;;;;35.25;20.95;;;19.10;57.50;;;;;;4912105;28;94165;-70
2022/04/09 11:39:48;;;;;;;37.03;20.92;;;19.20;57.50;;;;;;4911631;28;92829;-72
2022/04/09 11:42:14;;;;;;;36.83;20.05;;;19.10;57.30;;;;;;4912618;28;92659;-71
2022/04/09 11:44:40;;;;;;;30.67;19.45;;;19.10;57.30;;;;;;4911911;28;92206;-71
2022/04/09 11:47:16;;;;;;;33.05;19.95;;;19.10;57.10;;;;;;4911224;28;92955;-72
2022/04/09 11:49:48;;;;;;;32.90;19.08;;;19.10;57.10;;;;;;4912022;28;93706;-71
2022/04/09 11:52:27;;;;;;;33.40;19.13;;;19.20;57.10;;;;;;4910579;28;95149;-71
2022/04/09 11:54:54;;;;;;;32.28;19.10;;;19.20;57.10;;;;;;4912601;28;93151;-71
2022/04/09 11:57:21;;;;;;;32.47;19.15;;;19.10;57.00;;;;;;4911470;28;94142;-71
2022/04/09 11:59:53;;;;;;;29.73;18.23;;;19.20;56.90;;;;;;4911270;28;92834;-72
2022/04/09 12:02:24;;;;;;;29.40;17.98;;;19.20;56.70;;;;;;4911170;28;92980;-71
2022/04/09 12:04:51;;;;;;;29.75;18.40;;;19.20;56.70;;;;;;4911361;28;93005;-71
2022/04/09 12:07:18;;;;;;;25.65;17.35;;;19.20;56.80;;;;;;4913394;28;93803;-71
2022/04/09 12:09:44;;;;;;;31.05;17.88;;;19.20;56.60;;;;;;4915267;28;92726;-70
2022/04/09 12:12:10;;;;;;;27.15;17.13;;;19.20;56.60;;;;;;4915750;28;93031;-70
2022/04/09 12:14:36;;;;;;;23.35;16.45;;;19.20;56.60;;;;;;4915198;28;92581;-71
2022/04/09 12:17:13;;;;;;;30.27;16.55;;;19.20;56.40;;;;;;4913378;28;96005;-71
2022/04/09 12:19:43;;;;;;;29.75;16.25;;;19.20;56.10;;;;;;4913690;28;96730;-71
2022/04/09 12:22:22;;;;;;;32.30;16.30;;;19.20;56.10;;;;;;4914329;28;93129;-71
2022/04/09 12:24:52;;;;;;;27.50;15.60;;;19.20;55.90;;;;;;4915567;28;92943;-71
2022/04/09 12:27:19;;;;;;;27.27;16.25;;;19.20;55.90;;;;;;4914169;28;94268;-71
2022/04/09 12:29:53;;;;;;;25.02;15.27;;;19.30;55.90;;;;;;4915384;28;93010;-70
2022/04/09 12:32:24;;;;;;;23.25;15.30;;;19.30;55.80;;;;;;4914470;28;93043;-71
2022/04/09 12:34:53;;;;;;;22.23;14.32;;;19.30;55.70;;;;;;4915725;28;91684;-71
2022/04/09 12:37:20;;;;;;;23.63;14.35;;;19.40;55.60;;;;;;4914297;28;93891;-71
2022/04/09 12:39:46;;;;;;;22.60;14.52;;;19.40;55.40;;;;;;4914654;28;93479;-70
2022/04/09 12:42:12;;;;;;;22.73;14.90;;;19.40;55.40;;;;;;4913372;28;94927;-71
2022/04/09 12:44:38;;;;;;;21.80;14.18;;;19.40;55.20;;;;;;4914013;28;92956;-71
2022/04/09 12:47:05;;;;;;;19.65;13.32;;;19.40;55.10;;;;;;4914276;28;92967;-71
2022/04/09 12:49:38;;;;;;;22.20;13.38;;;19.40;55.10;;;;;;4913974;28;94358;-71
2022/04/09 12:52:07;;;;;;;22.05;13.40;;;19.40;55.10;;;;;;4914324;28;92491;-71
2022/04/09 12:54:34;;;;;;;18.73;12.40;;;19.40;55.10;;;;;;4914964;28;93048;-70
2022/04/09 12:57:08;;;;;;;19.75;13.05;;;19.30;55.00;;;;;;4914001;28;93186;-72
2022/04/09 12:59:34;;;;;;;19.65;12.95;;;19.30;54.90;;;;;;4914445;28;94312;-71
2022/04/09 13:02:01;;;;;;;20.65;12.43;;;19.20;54.90;;;;;;4914931;28;92669;-71
2022/04/09 13:04:27;;;;;;;20.15;12.40;;;19.20;54.80;;;;;;4914193;28;92579;-71
2022/04/09 13:06:53;;;;;;;19.15;12.73;;;19.20;54.90;;;;;;4913659;28;95884;-71
2022/04/09 13:09:18;;;;;;;17.63;11.95;;;19.10;54.90;;;;;;4914584;28;102342;-71
2022/04/09 13:11:44;;;;;;;17.92;11.90;;;19.00;54.90;;;;;;4913712;28;92906;-71
2022/04/09 13:14:09;;;;;;;19.23;12.07;;;19.00;55.00;;;;;;4914964;28;92697;-71
2022/04/09 13:16:35;;;;;;;19.15;11.82;;;19.00;55.20;;;;;;4914628;28;93131;-71
2022/04/09 13:19:02;;;;;;;17.70;11.85;;;19.00;55.30;;;;;;4911564;28;108946;-71
2022/04/09 13:21:28;;;;;;;17.48;11.40;;;19.00;55.30;;;;;;4913311;28;92625;-70
2022/04/09 13:23:54;;;;;;;18.50;11.57;;;19.00;55.30;;;;;;4914562;28;91825;-70
2022/04/09 13:26:20;;;;;;;18.02;11.38;;;18.90;55.30;;;;;;4913348;28;94401;-70
2022/04/09 13:28:45;;;;;;;18.38;11.85;;;18.90;55.30;;;;;;4913527;28;94057;-71
2022/04/09 13:31:11;;;;;;;23.52;11.02;;;18.90;55.30;;;;;;4912582;28;95451;-68
2022/04/09 13:33:36;;;;;;;16.55;10.93;;;18.90;55.60;;;;;;4913721;28;92562;-69
2022/04/09 13:36:02;;;;;;;16.55;10.93;;;18.90;55.80;;;;;;4896817;28;94414;-68
2022/04/09 13:38:28;;;;;;;17.38;11.07;;;19.00;56.00;;;;;;4913516;28;93682;-70
2022/04/09 13:40:55;;;;;;;15.68;10.63;;;19.00;56.00;;;;;;4913165;28;92661;-69
2022/04/09 13:43:20;;;;;;;16.33;9.77;;;19.00;56.00;;;;;;4913354;28;93046;-70
2022/04/09 13:45:47;;;;;;;17.88;9.80;;;19.00;56.10;;;;;;4913978;28;93537;-70
2022/04/09 13:48:12;;;;;;;17.35;10.27;;;19.00;56.10;;;;;;4913451;28;93422;-72